createdAt,value
2019-05-07T00:00:22.628Z,0.00
2019-05-07T00:01:23.314Z,0.00
2019-05-07T00:02:22.673Z,0.00
2019-05-07T00:03:22.547Z,0.00
2019-05-07T00:04:22.692Z,0.00
2019-05-07T00:05:22.896Z,0.00
2019-05-07T00:06:23.057Z,0.00
2019-05-07T00:07:22.523Z,0.00
2019-05-07T00:08:23.007Z,0.00
2019-05-07T00:09:23.294Z,0.00
2019-05-07T00:10:24.872Z,0.00
2019-05-07T00:11:22.509Z,0.00
2019-05-07T00:12:23.107Z,0.00
2019-05-07T00:13:22.820Z,0.00
2019-05-07T00:14:23.079Z,0.00
2019-05-07T00:15:23.040Z,0.00
2019-05-07T00:16:22.543Z,0.00
2019-05-07T00:17:22.864Z,0.00
2019-05-07T00:18:22.965Z,0.00
2019-05-07T00:19:23.095Z,0.00
2019-05-07T00:20:23.105Z,0.00
2019-05-07T00:21:23.341Z,0.00
2019-05-07T00:22:22.863Z,0.00
2019-05-07T00:23:23.172Z,0.00
2019-05-07T00:24:22.389Z,0.00
2019-05-07T00:25:22.858Z,0.00
2019-05-07T00:26:22.657Z,0.00
2019-05-07T00:27:22.720Z,0.00
2019-05-07T00:28:22.994Z,0.00
2019-05-07T00:29:22.525Z,0.00
2019-05-07T00:30:22.411Z,0.00
2019-05-07T00:31:23.227Z,0.00
2019-05-07T00:32:22.277Z,0.00
2019-05-07T00:33:22.724Z,0.00
2019-05-07T00:34:22.054Z,0.00
2019-05-07T00:35:22.550Z,0.00
2019-05-07T00:36:23.090Z,0.00
2019-05-07T00:37:22.069Z,0.00
2019-05-07T00:38:22.417Z,0.00
2019-05-07T00:39:22.014Z,0.00
2019-05-07T00:40:22.572Z,0.00
2019-05-07T00:41:22.947Z,0.00
2019-05-07T00:42:22.172Z,0.00
2019-05-07T00:43:22.669Z,0.00
2019-05-07T00:44:22.140Z,0.00
2019-05-07T00:45:23.773Z,0.00
2019-05-07T00:46:22.602Z,0.00
2019-05-07T00:47:22.224Z,0.00
2019-05-07T00:48:23.476Z,0.00
2019-05-07T00:49:22.128Z,0.00
2019-05-07T00:50:22.509Z,0.00
2019-05-07T00:51:22.610Z,0.00
2019-05-07T00:52:22.543Z,0.00
2019-05-07T00:53:23.502Z,0.00
2019-05-07T00:54:23.037Z,0.00
2019-05-07T00:55:22.783Z,0.00
2019-05-07T00:56:22.355Z,0.00
2019-05-07T00:57:22.911Z,0.00
2019-05-07T00:58:26.275Z,0.00
2019-05-07T00:59:22.581Z,0.00
2019-05-07T01:00:22.330Z,0.00
2019-05-07T01:01:22.706Z,0.00
2019-05-07T01:02:22.403Z,0.00
2019-05-07T01:03:22.213Z,0.00
2019-05-07T01:04:22.922Z,0.00
2019-05-07T01:05:23.062Z,0.00
2019-05-07T01:06:22.766Z,0.00
2019-05-07T01:07:22.959Z,0.00
2019-05-07T01:08:22.572Z,0.00
2019-05-07T01:09:22.939Z,0.00
2019-05-07T01:10:22.274Z,0.00
2019-05-07T01:11:22.691Z,0.00
2019-05-07T01:12:22.188Z,0.00
2019-05-07T01:13:23.176Z,0.00
2019-05-07T01:14:22.860Z,0.00
2019-05-07T01:15:30.369Z,0.00
2019-05-07T01:16:22.257Z,0.00
2019-05-07T01:17:22.694Z,0.00
2019-05-07T01:18:23.043Z,0.00
2019-05-07T01:19:21.933Z,0.00
2019-05-07T01:20:22.140Z,0.00
2019-05-07T01:21:22.717Z,0.00
2019-05-07T01:22:22.199Z,0.00
2019-05-07T01:23:22.776Z,0.00
2019-05-07T01:24:23.073Z,0.00
2019-05-07T01:25:22.120Z,0.00
2019-05-07T01:26:21.887Z,0.00
2019-05-07T01:27:22.613Z,0.00
2019-05-07T01:28:22.343Z,0.00
2019-05-07T01:29:22.561Z,0.00
2019-05-07T01:30:20.545Z,0.00
2019-05-07T01:31:22.217Z,0.00
2019-05-07T01:32:22.188Z,0.00
2019-05-07T01:33:22.652Z,0.00
2019-05-07T01:34:20.457Z,0.00
2019-05-07T01:35:22.421Z,0.00
2019-05-07T01:36:22.480Z,0.00
2019-05-07T01:37:20.390Z,0.00
2019-05-07T01:38:20.363Z,0.00
2019-05-07T01:39:20.350Z,0.00
2019-05-07T01:40:20.324Z,0.00
2019-05-07T01:41:20.300Z,0.00
2019-05-07T01:42:22.176Z,0.00
2019-05-07T01:43:20.249Z,0.00
2019-05-07T01:44:22.168Z,0.00
2019-05-07T01:45:22.036Z,0.00
2019-05-07T01:46:20.174Z,0.00
2019-05-07T01:47:20.160Z,0.00
2019-05-07T01:48:20.128Z,0.00
2019-05-07T01:49:20.109Z,0.00
2019-05-07T01:50:20.083Z,0.00
2019-05-07T01:51:22.135Z,0.00
2019-05-07T01:52:20.041Z,0.00
2019-05-07T01:53:20.016Z,0.00
2019-05-07T01:54:23.496Z,0.00
2019-05-07T01:55:19.970Z,0.00
2019-05-07T01:56:19.945Z,0.00
2019-05-07T01:57:19.923Z,0.00
2019-05-07T01:58:21.999Z,0.00
2019-05-07T01:59:19.875Z,0.00
2019-05-07T02:00:19.852Z,0.00
2019-05-07T02:01:22.078Z,0.00
2019-05-07T02:02:19.805Z,0.00
2019-05-07T02:03:19.796Z,0.00
2019-05-07T02:04:19.761Z,0.00
2019-05-07T02:05:19.738Z,0.00
2019-05-07T02:06:21.922Z,0.00
2019-05-07T02:07:19.690Z,0.00
2019-05-07T02:08:21.991Z,0.00
2019-05-07T02:09:19.651Z,0.00
2019-05-07T02:10:19.621Z,0.00
2019-05-07T02:11:21.740Z,0.00
2019-05-07T02:12:19.579Z,0.00
2019-05-07T02:13:19.554Z,0.00
2019-05-07T02:14:19.529Z,0.00
2019-05-07T02:15:19.516Z,0.00
2019-05-07T02:16:19.485Z,0.00
2019-05-07T02:17:19.462Z,0.00
2019-05-07T02:18:19.442Z,0.00
2019-05-07T02:19:19.416Z,0.00
2019-05-07T02:20:19.391Z,0.00
2019-05-07T02:21:19.369Z,0.00
2019-05-07T02:22:19.345Z,0.00
2019-05-07T02:23:19.323Z,0.00
2019-05-07T02:24:19.300Z,0.00
2019-05-07T02:25:19.278Z,0.00
2019-05-07T02:26:19.254Z,0.00
2019-05-07T02:27:19.233Z,0.00
2019-05-07T02:28:19.208Z,0.00
2019-05-07T02:29:19.185Z,0.00
2019-05-07T02:30:19.162Z,0.00
2019-05-07T02:31:19.138Z,0.00
2019-05-07T02:32:19.116Z,0.00
2019-05-07T02:33:19.098Z,0.00
2019-05-07T02:34:19.076Z,0.00
2019-05-07T02:35:19.046Z,0.00
2019-05-07T02:36:19.023Z,0.00
2019-05-07T02:37:19.001Z,0.00
2019-05-07T02:38:18.984Z,0.00
2019-05-07T02:39:18.951Z,0.00
2019-05-07T02:40:18.929Z,0.00
2019-05-07T02:41:18.908Z,0.00
2019-05-07T02:42:18.883Z,0.00
2019-05-07T02:43:18.861Z,0.00
2019-05-07T02:44:18.845Z,0.00
2019-05-07T02:45:18.824Z,0.00
2019-05-07T02:46:29.339Z,0.00
2019-05-07T02:47:18.766Z,0.00
2019-05-07T02:48:18.755Z,0.00
2019-05-07T02:49:18.728Z,0.00
2019-05-07T02:50:18.698Z,0.00
2019-05-07T02:51:18.675Z,0.00
2019-05-07T02:52:18.653Z,0.00
2019-05-07T02:53:18.628Z,0.00
2019-05-07T02:54:18.608Z,0.00
2019-05-07T02:55:18.584Z,0.00
2019-05-07T02:56:18.557Z,0.00
2019-05-07T02:57:18.533Z,0.00
2019-05-07T02:58:18.512Z,0.00
2019-05-07T02:59:18.490Z,0.00
2019-05-07T03:00:19.489Z,0.00
2019-05-07T03:01:18.443Z,0.00
2019-05-07T03:02:18.418Z,0.00
2019-05-07T03:03:18.399Z,0.00
2019-05-07T03:04:18.379Z,0.00
2019-05-07T03:05:18.350Z,0.00
2019-05-07T03:06:18.324Z,0.00
2019-05-07T03:07:18.304Z,0.00
2019-05-07T03:08:18.278Z,0.00
2019-05-07T03:09:18.280Z,0.00
2019-05-07T03:10:18.234Z,0.00
2019-05-07T03:11:18.211Z,0.00
2019-05-07T03:12:18.186Z,0.00
2019-05-07T03:13:18.164Z,0.00
2019-05-07T03:14:18.140Z,0.00
2019-05-07T03:15:18.117Z,0.00
2019-05-07T03:16:35.370Z,0.00
2019-05-07T03:17:18.075Z,0.00
2019-05-07T03:18:19.073Z,0.00
2019-05-07T03:19:18.022Z,0.00
2019-05-07T03:20:18.003Z,0.00
2019-05-07T03:21:17.979Z,0.00
2019-05-07T03:22:17.959Z,0.00
2019-05-07T03:23:17.931Z,0.00
2019-05-07T03:24:17.911Z,0.00
2019-05-07T03:25:17.885Z,0.00
2019-05-07T03:26:17.872Z,0.00
2019-05-07T03:27:17.843Z,0.00
2019-05-07T03:28:17.814Z,4.00
2019-05-07T03:29:17.790Z,0.00
2019-05-07T03:30:17.785Z,0.00
2019-05-07T03:31:17.746Z,0.00
2019-05-07T03:32:17.719Z,0.00
2019-05-07T03:33:17.716Z,0.00
2019-05-07T03:34:17.715Z,0.00
2019-05-07T03:35:17.654Z,4.00
2019-05-07T03:36:17.845Z,4.00
2019-05-07T03:37:17.605Z,0.00
2019-05-07T03:38:17.579Z,0.00
2019-05-07T03:39:17.558Z,0.00
2019-05-07T03:40:17.533Z,4.00
2019-05-07T03:41:17.511Z,4.00
2019-05-07T03:42:17.507Z,4.00
2019-05-07T03:43:17.465Z,8.00
2019-05-07T03:44:17.441Z,4.00
2019-05-07T03:45:17.421Z,8.00
2019-05-07T03:46:17.395Z,8.00
2019-05-07T03:47:17.411Z,8.00
2019-05-07T03:48:17.349Z,8.00
2019-05-07T03:49:17.337Z,8.00
2019-05-07T03:50:17.301Z,8.00
2019-05-07T03:51:17.276Z,12.00
2019-05-07T03:52:17.257Z,12.00
2019-05-07T03:53:17.234Z,12.00
2019-05-07T03:54:17.205Z,12.00
2019-05-07T03:55:17.186Z,16.00
2019-05-07T03:56:17.164Z,12.00
2019-05-07T03:57:17.138Z,16.00
2019-05-07T03:58:17.112Z,16.00
2019-05-07T03:59:17.093Z,20.00
2019-05-07T04:00:17.080Z,20.00
2019-05-07T04:01:17.048Z,24.00
2019-05-07T04:02:17.019Z,24.00
2019-05-07T04:03:19.730Z,24.00
2019-05-07T04:04:16.972Z,24.00
2019-05-07T04:05:16.953Z,24.00
2019-05-07T04:06:16.934Z,32.00
2019-05-07T04:07:16.904Z,28.00
2019-05-07T04:08:16.878Z,32.00
2019-05-07T04:09:16.887Z,32.00
2019-05-07T04:10:16.842Z,32.00
2019-05-07T04:11:16.829Z,32.00
2019-05-07T04:12:16.794Z,36.00
2019-05-07T04:13:16.767Z,36.00
2019-05-07T04:14:16.740Z,40.00
2019-05-07T04:15:19.436Z,40.00
2019-05-07T04:16:16.693Z,40.00
2019-05-07T04:17:22.241Z,44.00
2019-05-07T04:18:16.644Z,44.00
2019-05-07T04:19:16.623Z,48.00
2019-05-07T04:20:16.602Z,48.00
2019-05-07T04:21:16.579Z,52.00
2019-05-07T04:22:16.555Z,52.00
2019-05-07T04:23:16.530Z,52.00
2019-05-07T04:24:16.506Z,56.00
2019-05-07T04:25:16.487Z,60.00
2019-05-07T04:26:16.477Z,60.00
2019-05-07T04:27:16.434Z,64.00
2019-05-07T04:28:16.413Z,64.00
2019-05-07T04:29:16.393Z,68.00
2019-05-07T04:30:16.363Z,68.00
2019-05-07T04:31:16.342Z,68.00
2019-05-07T04:32:16.320Z,72.00
2019-05-07T04:33:16.305Z,72.00
2019-05-07T04:34:16.272Z,76.00
2019-05-07T04:35:16.249Z,76.00
2019-05-07T04:36:16.237Z,80.00
2019-05-07T04:37:16.204Z,76.00
2019-05-07T04:38:16.179Z,80.00
2019-05-07T04:39:16.153Z,80.00
2019-05-07T04:40:16.134Z,80.00
2019-05-07T04:41:16.117Z,80.00
2019-05-07T04:42:16.085Z,80.00
2019-05-07T04:43:16.063Z,80.00
2019-05-07T04:44:16.051Z,84.00
2019-05-07T04:45:16.016Z,80.00
2019-05-07T04:46:15.995Z,84.00
2019-05-07T04:47:32.757Z,84.00
2019-05-07T04:48:15.952Z,84.00
2019-05-07T04:49:15.934Z,84.00
2019-05-07T04:50:33.091Z,88.00
2019-05-07T04:51:15.876Z,88.00
2019-05-07T04:52:15.854Z,92.00
2019-05-07T04:53:15.834Z,96.00
2019-05-07T04:54:15.807Z,96.00
2019-05-07T04:55:15.783Z,96.00
2019-05-07T04:56:15.770Z,100.00
2019-05-07T04:57:15.739Z,100.00
2019-05-07T04:58:15.733Z,100.00
2019-05-07T04:59:15.700Z,104.00
2019-05-07T05:00:15.697Z,100.00
2019-05-07T05:01:15.647Z,104.00
2019-05-07T05:02:15.620Z,104.00
2019-05-07T05:03:15.599Z,104.00
2019-05-07T05:04:25.509Z,104.00
2019-05-07T05:05:15.555Z,100.00
2019-05-07T05:06:15.529Z,92.00
2019-05-07T05:07:15.504Z,84.00
2019-05-07T05:08:15.491Z,92.00
2019-05-07T05:09:15.472Z,96.00
2019-05-07T05:10:15.464Z,100.00
2019-05-07T05:11:15.424Z,104.00
2019-05-07T05:12:15.402Z,104.00
2019-05-07T05:13:15.375Z,108.00
2019-05-07T05:14:15.342Z,108.00
2019-05-07T05:15:15.325Z,112.00
2019-05-07T05:16:15.295Z,112.00
2019-05-07T05:17:15.272Z,112.00
2019-05-07T05:18:15.247Z,116.00
2019-05-07T05:19:15.226Z,112.00
2019-05-07T05:20:15.214Z,116.00
2019-05-07T05:21:15.184Z,116.00
2019-05-07T05:22:15.157Z,120.00
2019-05-07T05:23:15.135Z,128.00
2019-05-07T05:24:15.111Z,128.00
2019-05-07T05:25:15.093Z,132.00
2019-05-07T05:26:15.065Z,140.00
2019-05-07T05:27:15.041Z,148.00
2019-05-07T05:28:15.020Z,148.00
2019-05-07T05:29:15.000Z,148.00
2019-05-07T05:30:14.975Z,148.00
2019-05-07T05:31:14.955Z,156.00
2019-05-07T05:32:14.932Z,160.00
2019-05-07T05:33:14.924Z,168.00
2019-05-07T05:34:14.878Z,172.00
2019-05-07T05:35:14.856Z,176.00
2019-05-07T05:36:14.835Z,180.00
2019-05-07T05:37:14.811Z,184.00
2019-05-07T05:38:14.785Z,196.00
2019-05-07T05:39:14.764Z,200.00
2019-05-07T05:40:14.739Z,208.00
2019-05-07T05:41:14.716Z,208.00
2019-05-07T05:42:14.694Z,212.00
2019-05-07T05:43:14.679Z,208.00
2019-05-07T05:44:14.649Z,200.00
2019-05-07T05:45:14.638Z,204.00
2019-05-07T05:46:14.605Z,208.00
2019-05-07T05:47:14.578Z,212.00
2019-05-07T05:48:14.562Z,212.00
2019-05-07T05:49:14.536Z,216.00
2019-05-07T05:50:14.511Z,212.00
2019-05-07T05:51:14.494Z,220.00
2019-05-07T05:52:14.472Z,228.00
2019-05-07T05:53:14.440Z,236.00
2019-05-07T05:54:14.423Z,244.00
2019-05-07T05:55:14.403Z,248.00
2019-05-07T05:56:14.376Z,256.00
2019-05-07T05:57:14.353Z,256.00
2019-05-07T05:58:14.325Z,264.00
2019-05-07T05:59:24.057Z,276.00
2019-05-07T06:00:14.282Z,288.00
2019-05-07T06:01:14.259Z,300.00
2019-05-07T06:02:14.233Z,308.00
2019-05-07T06:03:14.211Z,320.00
2019-05-07T06:04:14.192Z,328.00
2019-05-07T06:05:14.177Z,336.00
2019-05-07T06:06:14.143Z,336.00
2019-05-07T06:07:14.876Z,336.00
2019-05-07T06:08:17.458Z,328.00
2019-05-07T06:09:14.075Z,320.00
2019-05-07T06:10:14.054Z,324.00
2019-05-07T06:11:14.033Z,344.00
2019-05-07T06:12:14.005Z,348.00
2019-05-07T06:13:13.982Z,356.00
2019-05-07T06:14:13.960Z,368.00
2019-05-07T06:15:13.938Z,376.00
2019-05-07T06:16:13.915Z,376.00
2019-05-07T06:17:13.890Z,368.00
2019-05-07T06:18:20.969Z,372.00
2019-05-07T06:19:13.846Z,372.00
2019-05-07T06:20:13.823Z,368.00
2019-05-07T06:21:13.798Z,360.00
2019-05-07T06:22:16.599Z,360.00
2019-05-07T06:23:13.752Z,360.00
2019-05-07T06:24:13.732Z,368.00
2019-05-07T06:25:14.928Z,372.00
2019-05-07T06:26:13.684Z,396.00
2019-05-07T06:27:13.661Z,424.00
2019-05-07T06:28:13.640Z,452.00
2019-05-07T06:29:13.622Z,472.00
2019-05-07T06:30:13.595Z,476.00
2019-05-07T06:31:13.570Z,460.00
2019-05-07T06:32:13.554Z,444.00
2019-05-07T06:33:13.534Z,428.00
2019-05-07T06:34:13.503Z,424.00
2019-05-07T06:35:13.482Z,424.00
2019-05-07T06:36:13.457Z,420.00
2019-05-07T06:37:13.452Z,420.00
2019-05-07T06:38:13.414Z,416.00
2019-05-07T06:39:13.391Z,420.00
2019-05-07T06:40:13.369Z,420.00
2019-05-07T06:41:13.344Z,420.00
2019-05-07T06:42:13.322Z,424.00
2019-05-07T06:43:13.301Z,416.00
2019-05-07T06:44:13.277Z,412.00
2019-05-07T06:45:13.256Z,412.00
2019-05-07T06:46:13.249Z,416.00
2019-05-07T06:47:13.232Z,424.00
2019-05-07T06:48:13.193Z,440.00
2019-05-07T06:49:13.166Z,440.00
2019-05-07T06:50:13.144Z,444.00
2019-05-07T06:51:13.120Z,444.00
2019-05-07T06:52:13.106Z,444.00
2019-05-07T06:53:13.083Z,444.00
2019-05-07T06:54:13.102Z,448.00
2019-05-07T06:55:13.030Z,448.00
2019-05-07T06:56:13.013Z,444.00
2019-05-07T06:57:13.138Z,440.00
2019-05-07T06:58:12.962Z,432.00
2019-05-07T06:59:13.082Z,428.00
2019-05-07T07:00:12.915Z,432.00
2019-05-07T07:01:12.893Z,444.00
2019-05-07T07:02:12.874Z,460.00
2019-05-07T07:03:12.874Z,468.00
2019-05-07T07:04:13.074Z,476.00
2019-05-07T07:05:12.804Z,484.00
2019-05-07T07:06:12.783Z,492.00
2019-05-07T07:07:26.095Z,504.00
2019-05-07T07:08:12.737Z,520.00
2019-05-07T07:09:12.756Z,536.00
2019-05-07T07:10:12.689Z,552.00
2019-05-07T07:11:12.950Z,560.00
2019-05-07T07:12:12.980Z,564.00
2019-05-07T07:13:12.621Z,564.00
2019-05-07T07:14:12.603Z,568.00
2019-05-07T07:15:12.575Z,564.00
2019-05-07T07:16:12.789Z,564.00
2019-05-07T07:17:13.034Z,560.00
2019-05-07T07:18:12.508Z,556.00
2019-05-07T07:19:12.567Z,544.00
2019-05-07T07:20:12.792Z,536.00
2019-05-07T07:21:12.512Z,532.00
2019-05-07T07:22:13.098Z,528.00
2019-05-07T07:23:12.404Z,524.00
2019-05-07T07:24:12.798Z,516.00
2019-05-07T07:25:12.360Z,520.00
2019-05-07T07:26:12.701Z,524.00
2019-05-07T07:27:13.142Z,528.00
2019-05-07T07:28:12.488Z,532.00
2019-05-07T07:29:12.800Z,540.00
2019-05-07T07:30:12.793Z,548.00
2019-05-07T07:31:12.997Z,560.00
2019-05-07T07:32:12.760Z,576.00
2019-05-07T07:33:12.243Z,592.00
2019-05-07T07:34:12.998Z,616.00
2019-05-07T07:35:12.964Z,632.00
2019-05-07T07:36:12.106Z,640.00
2019-05-07T07:37:15.547Z,640.00
2019-05-07T07:38:12.063Z,620.00
2019-05-07T07:39:12.678Z,608.00
2019-05-07T07:40:12.856Z,596.00
2019-05-07T07:41:12.743Z,588.00
2019-05-07T07:42:12.448Z,588.00
2019-05-07T07:43:12.889Z,596.00
2019-05-07T07:44:13.224Z,608.00
2019-05-07T07:45:12.437Z,624.00
2019-05-07T07:46:13.154Z,644.00
2019-05-07T07:47:12.882Z,660.00
2019-05-07T07:48:13.186Z,680.00
2019-05-07T07:49:14.959Z,692.00
2019-05-07T07:50:12.950Z,696.00
2019-05-07T07:51:13.789Z,692.00
2019-05-07T07:52:12.310Z,688.00
2019-05-07T07:53:12.982Z,688.00
2019-05-07T07:54:13.085Z,700.00
2019-05-07T07:55:12.724Z,712.00
2019-05-07T07:56:12.142Z,720.00
2019-05-07T07:57:12.641Z,736.00
2019-05-07T07:58:12.096Z,756.00
2019-05-07T07:59:12.620Z,788.00
2019-05-07T08:00:11.946Z,824.00
2019-05-07T08:01:12.255Z,848.00
2019-05-07T08:02:12.383Z,872.00
2019-05-07T08:03:13.395Z,892.00
2019-05-07T08:04:12.244Z,916.00
2019-05-07T08:05:12.546Z,948.00
2019-05-07T08:06:11.943Z,988.00
2019-05-07T08:07:12.378Z,1016.00
2019-05-07T08:08:12.837Z,1032.00
2019-05-07T08:09:12.951Z,1116.00
2019-05-07T08:10:12.882Z,1052.00
2019-05-07T08:11:12.671Z,1020.00
2019-05-07T08:12:12.774Z,996.00
2019-05-07T08:13:12.257Z,988.00
2019-05-07T08:14:12.613Z,992.00
2019-05-07T08:15:18.210Z,992.00
2019-05-07T08:16:12.964Z,1016.00
2019-05-07T08:17:13.011Z,1088.00
2019-05-07T08:18:11.994Z,1156.00
2019-05-07T08:19:21.372Z,1216.00
2019-05-07T08:20:12.786Z,1188.00
2019-05-07T08:21:12.039Z,1172.00
2019-05-07T08:22:12.030Z,1296.00
2019-05-07T08:23:12.216Z,1460.00
2019-05-07T08:24:12.280Z,1404.00
2019-05-07T08:25:12.523Z,1520.00
2019-05-07T08:26:12.716Z,1584.00
2019-05-07T08:27:12.851Z,1240.00
2019-05-07T08:28:11.932Z,1096.00
2019-05-07T08:29:11.934Z,1020.00
2019-05-07T08:30:11.862Z,992.00
2019-05-07T08:31:12.030Z,968.00
2019-05-07T08:32:12.612Z,948.00
2019-05-07T08:33:14.633Z,952.00
2019-05-07T08:34:14.004Z,964.00
2019-05-07T08:35:14.102Z,984.00
2019-05-07T08:36:14.293Z,1028.00
2019-05-07T08:37:12.025Z,1112.00
2019-05-07T08:38:12.635Z,1220.00
2019-05-07T08:39:12.831Z,1236.00
2019-05-07T08:40:12.850Z,1220.00
2019-05-07T08:41:12.000Z,1292.00
2019-05-07T08:42:12.268Z,1308.00
2019-05-07T08:43:12.565Z,1408.00
2019-05-07T08:44:14.618Z,1320.00
2019-05-07T08:45:11.965Z,1252.00
2019-05-07T08:46:11.966Z,1252.00
2019-05-07T08:47:12.182Z,1272.00
2019-05-07T08:48:12.491Z,1324.00
2019-05-07T08:49:12.129Z,1464.00
2019-05-07T08:50:11.844Z,1680.00
2019-05-07T08:51:11.928Z,1600.00
2019-05-07T08:52:12.035Z,1528.00
2019-05-07T08:53:10.407Z,1572.00
2019-05-07T08:54:12.367Z,1456.00
2019-05-07T08:55:12.412Z,1480.00
2019-05-07T08:56:12.294Z,1564.00
2019-05-07T08:57:12.190Z,1636.00
2019-05-07T08:58:12.071Z,1732.00
2019-05-07T08:59:12.258Z,1920.00
2019-05-07T09:00:12.290Z,1884.00
2019-05-07T09:01:11.878Z,1484.00
2019-05-07T09:02:12.358Z,1336.00
2019-05-07T09:03:20.195Z,1220.00
2019-05-07T09:04:10.174Z,1104.00
2019-05-07T09:05:12.067Z,1072.00
2019-05-07T09:06:11.693Z,1156.00
2019-05-07T09:07:10.114Z,1032.00
2019-05-07T09:08:10.093Z,1036.00
2019-05-07T09:09:10.067Z,1068.00
2019-05-07T09:10:10.043Z,988.00
2019-05-07T09:11:10.025Z,980.00
2019-05-07T09:12:12.188Z,908.00
2019-05-07T09:13:09.986Z,880.00
2019-05-07T09:14:12.221Z,860.00
2019-05-07T09:15:09.936Z,864.00
2019-05-07T09:16:09.913Z,880.00
2019-05-07T09:17:09.893Z,876.00
2019-05-07T09:18:09.873Z,884.00
2019-05-07T09:19:09.858Z,816.00
2019-05-07T09:20:09.838Z,792.00
2019-05-07T09:21:09.807Z,804.00
2019-05-07T09:22:09.796Z,852.00
2019-05-07T09:23:09.767Z,904.00
2019-05-07T09:24:11.943Z,952.00
2019-05-07T09:25:09.721Z,944.00
2019-05-07T09:26:09.702Z,932.00
2019-05-07T09:27:09.679Z,992.00
2019-05-07T09:28:11.784Z,1080.00
2019-05-07T09:29:11.696Z,2584.00
2019-05-07T09:30:09.613Z,1516.00
2019-05-07T09:31:09.592Z,2032.00
2019-05-07T09:32:11.962Z,2736.00
2019-05-07T09:33:09.551Z,1160.00
2019-05-07T09:34:11.678Z,1100.00
2019-05-07T09:35:09.513Z,1120.00
2019-05-07T09:36:09.487Z,1280.00
2019-05-07T09:37:09.476Z,1132.00
2019-05-07T09:38:09.446Z,1076.00
2019-05-07T09:39:09.426Z,1076.00
2019-05-07T09:40:09.399Z,984.00
2019-05-07T09:41:09.382Z,964.00
2019-05-07T09:42:09.357Z,940.00
2019-05-07T09:43:11.561Z,900.00
2019-05-07T09:44:09.320Z,864.00
2019-05-07T09:45:09.295Z,840.00
2019-05-07T09:46:09.274Z,820.00
2019-05-07T09:47:09.257Z,808.00
2019-05-07T09:48:09.231Z,796.00
2019-05-07T09:49:09.224Z,780.00
2019-05-07T09:50:09.193Z,772.00
2019-05-07T09:51:09.167Z,760.00
2019-05-07T09:52:09.146Z,752.00
2019-05-07T09:53:09.126Z,748.00
2019-05-07T09:54:09.104Z,740.00
2019-05-07T09:55:16.643Z,740.00
2019-05-07T09:56:09.062Z,732.00
2019-05-07T09:57:25.245Z,724.00
2019-05-07T09:58:09.021Z,712.00
2019-05-07T09:59:09.002Z,700.00
2019-05-07T10:00:08.981Z,680.00
2019-05-07T10:01:08.958Z,664.00
2019-05-07T10:02:08.941Z,652.00
2019-05-07T10:03:08.910Z,644.00
2019-05-07T10:04:08.892Z,644.00
2019-05-07T10:05:08.869Z,644.00
2019-05-07T10:06:08.848Z,656.00
2019-05-07T10:07:08.832Z,660.00
2019-05-07T10:08:08.804Z,664.00
2019-05-07T10:09:08.785Z,668.00
2019-05-07T10:10:08.769Z,692.00
2019-05-07T10:11:08.747Z,716.00
2019-05-07T10:12:08.724Z,740.00
2019-05-07T10:13:08.700Z,752.00
2019-05-07T10:14:08.676Z,768.00
2019-05-07T10:15:08.659Z,788.00
2019-05-07T10:16:08.638Z,812.00
2019-05-07T10:17:08.623Z,832.00
2019-05-07T10:18:08.594Z,856.00
2019-05-07T10:19:08.572Z,868.00
2019-05-07T10:20:19.273Z,888.00
2019-05-07T10:21:08.529Z,912.00
2019-05-07T10:22:08.515Z,940.00
2019-05-07T10:23:08.494Z,972.00
2019-05-07T10:24:08.468Z,1004.00
2019-05-07T10:25:08.461Z,1048.00
2019-05-07T10:26:08.427Z,1088.00
2019-05-07T10:27:08.400Z,1040.00
2019-05-07T10:28:08.383Z,1016.00
2019-05-07T10:29:08.361Z,988.00
2019-05-07T10:30:08.340Z,960.00
2019-05-07T10:31:08.323Z,932.00
2019-05-07T10:32:08.307Z,916.00
2019-05-07T10:33:08.276Z,916.00
2019-05-07T10:34:08.255Z,940.00
2019-05-07T10:35:08.248Z,984.00
2019-05-07T10:36:08.213Z,1024.00
2019-05-07T10:37:08.188Z,1096.00
2019-05-07T10:38:08.166Z,1324.00
2019-05-07T10:39:08.145Z,2360.00
2019-05-07T10:40:08.127Z,2324.00
2019-05-07T10:41:08.105Z,2068.00
2019-05-07T10:42:08.086Z,1864.00
2019-05-07T10:43:08.069Z,1988.00
2019-05-07T10:44:08.044Z,2004.00
2019-05-07T10:45:08.023Z,1960.00
2019-05-07T10:46:07.999Z,1868.00
2019-05-07T10:47:07.979Z,1800.00
2019-05-07T10:48:07.960Z,1924.00
2019-05-07T10:49:07.937Z,1952.00
2019-05-07T10:50:07.918Z,2268.00
2019-05-07T10:51:07.898Z,2276.00
2019-05-07T10:52:07.878Z,1656.00
2019-05-07T10:53:07.854Z,1484.00
2019-05-07T10:54:07.832Z,1460.00
2019-05-07T10:55:07.813Z,1352.00
2019-05-07T10:56:07.797Z,1248.00
2019-05-07T10:57:07.780Z,1184.00
2019-05-07T10:58:07.754Z,1128.00
2019-05-07T10:59:07.729Z,1060.00
2019-05-07T11:00:07.710Z,1000.00
2019-05-07T11:01:07.689Z,956.00
2019-05-07T11:02:07.668Z,916.00
2019-05-07T11:03:07.647Z,884.00
2019-05-07T11:04:07.625Z,856.00
2019-05-07T11:05:07.607Z,852.00
2019-05-07T11:06:07.592Z,788.00
2019-05-07T11:07:07.575Z,752.00
2019-05-07T11:08:07.543Z,724.00
2019-05-07T11:09:07.530Z,700.00
2019-05-07T11:10:07.505Z,692.00
2019-05-07T11:11:07.490Z,688.00
2019-05-07T11:12:07.466Z,692.00
2019-05-07T11:13:07.448Z,704.00
2019-05-07T11:14:07.428Z,724.00
2019-05-07T11:15:07.397Z,740.00
2019-05-07T11:16:07.378Z,748.00
2019-05-07T11:17:07.367Z,752.00
2019-05-07T11:18:07.341Z,772.00
2019-05-07T11:19:07.327Z,780.00
2019-05-07T11:20:07.292Z,796.00
2019-05-07T11:21:07.275Z,836.00
2019-05-07T11:22:07.250Z,888.00
2019-05-07T11:23:07.229Z,976.00
2019-05-07T11:24:07.210Z,2668.00
2019-05-07T11:25:07.188Z,1248.00
2019-05-07T11:26:07.165Z,1220.00
2019-05-07T11:27:07.153Z,1176.00
2019-05-07T11:28:07.126Z,1280.00
2019-05-07T11:29:07.102Z,1172.00
2019-05-07T11:30:07.080Z,2644.00
2019-05-07T11:31:07.063Z,2184.00
2019-05-07T11:32:07.044Z,944.00
2019-05-07T11:33:07.020Z,844.00
2019-05-07T11:34:07.006Z,756.00
2019-05-07T11:35:06.980Z,696.00
2019-05-07T11:36:06.968Z,664.00
2019-05-07T11:37:06.940Z,632.00
2019-05-07T11:38:20.431Z,608.00
2019-05-07T11:39:06.900Z,596.00
2019-05-07T11:40:06.872Z,976.00
2019-05-07T11:41:06.851Z,548.00
2019-05-07T11:42:06.834Z,536.00
2019-05-07T11:43:06.808Z,540.00
2019-05-07T11:44:06.787Z,552.00
2019-05-07T11:45:06.766Z,568.00
2019-05-07T11:46:06.745Z,580.00
2019-05-07T11:47:06.722Z,604.00
2019-05-07T11:48:06.701Z,632.00
2019-05-07T11:49:06.689Z,672.00
2019-05-07T11:50:06.665Z,740.00
2019-05-07T11:51:06.643Z,808.00
2019-05-07T11:52:06.616Z,900.00
2019-05-07T11:53:06.594Z,1032.00
2019-05-07T11:54:06.572Z,2920.00
2019-05-07T11:55:06.552Z,1864.00
2019-05-07T11:56:06.538Z,1684.00
2019-05-07T11:57:06.515Z,1840.00
2019-05-07T11:58:06.500Z,1096.00
2019-05-07T11:59:06.465Z,1016.00
2019-05-07T12:00:06.457Z,944.00
2019-05-07T12:01:06.431Z,888.00
2019-05-07T12:02:06.406Z,864.00
2019-05-07T12:03:06.381Z,852.00
2019-05-07T12:04:06.369Z,860.00
2019-05-07T12:05:06.349Z,888.00
2019-05-07T12:06:06.320Z,908.00
2019-05-07T12:07:06.301Z,968.00
2019-05-07T12:08:06.276Z,1140.00
2019-05-07T12:09:06.262Z,1808.00
2019-05-07T12:10:06.243Z,1304.00
2019-05-07T12:11:06.222Z,1008.00
2019-05-07T12:12:06.212Z,1008.00
2019-05-07T12:13:06.171Z,912.00
2019-05-07T12:14:06.152Z,896.00
2019-05-07T12:15:06.133Z,896.00
2019-05-07T12:16:06.115Z,908.00
2019-05-07T12:17:06.091Z,916.00
2019-05-07T12:18:06.070Z,932.00
2019-05-07T12:19:06.049Z,1136.00
2019-05-07T12:20:06.038Z,996.00
2019-05-07T12:21:17.416Z,984.00
2019-05-07T12:22:05.988Z,992.00
2019-05-07T12:23:05.979Z,1008.00
2019-05-07T12:24:05.946Z,1032.00
2019-05-07T12:25:05.924Z,1060.00
2019-05-07T12:26:06.350Z,1112.00
2019-05-07T12:27:05.879Z,1196.00
2019-05-07T12:28:05.863Z,1424.00
2019-05-07T12:29:05.846Z,1548.00
2019-05-07T12:30:05.877Z,2848.00
2019-05-07T12:31:05.797Z,3008.00
2019-05-07T12:32:05.787Z,2856.00
2019-05-07T12:33:05.771Z,2052.00
2019-05-07T12:34:05.743Z,2456.00
2019-05-07T12:35:05.714Z,2668.00
2019-05-07T12:36:05.694Z,2660.00
2019-05-07T12:37:05.674Z,1276.00
2019-05-07T12:38:05.653Z,1896.00
2019-05-07T12:39:05.637Z,2356.00
2019-05-07T12:40:05.613Z,2300.00